Accueil
METAR-TAF:

METAR-TAF

Aéroports :

Belgrade, Serbie

Aéroport Nikola-Tesla de Belgrade

latitude: 44-49N, longitude: 020-17E, altitude: 96 m

Observation

Le bulletin a été fait il y a 13 minutes, à 22:30 UTC
Vent 7 kt de sud
Température 26°C
Humidité 54%
Pression 1009 hPa
Visibilité 10 km ou plus
pas de nuages en-dessous de 1500 mètres et pas de cumulonimbus.

METAR: LYBE 272230Z 19007KT CAVOK 26/16 Q1009 NOSIG

Heure: 00:43 (22:43 UTC)

Prévision

Le bulletin a été fait il y a 5 heures et 43 minutes, à 17:00 UTC
Prévision valable du 27 à 18 UTC au 28 à 18 UTC
Vent 9 kt de sud-est
Visibilité 10 km ou plus
pas de nuages en-dessous de 1500 mètres et pas de cumulonimbus.

TAF: LYBE 271700Z 2718/2818 14009KT CAVOK TX35/2814Z TN21/2802Z

Observations et prévisions météorologiques de plus de 4000 aéroports (messages METAR et TAF).

Les stations disponibles sont représentées par des disques jaunes et rouges sur la carte.

Passer la souris dessus pour voir le nom de la station.

Cliquer dessus pour voir les observations et prévisions météorologiques.

Pour changer de carte: cliquez sur les boutons verts avec une croix noire pour zoomer, sur le bouton vert avec un tiret pour effectuer un zoom arrière, ou sur les flèches vertes pour les cartes adjacentes.


METAR-TAF: